createdAt,value
2022-09-15T00:01:18.837Z,82.06
2022-09-15T00:03:23.951Z,82.02
2022-09-15T00:05:26.289Z,81.89
2022-09-15T00:07:28.378Z,82.06
2022-09-15T00:09:30.723Z,82.16
2022-09-15T00:11:36.241Z,82.38
2022-09-15T00:13:40.283Z,82.42
2022-09-15T00:15:43.254Z,82.38
2022-09-15T00:17:50.786Z,82.43
2022-09-15T00:19:53.343Z,82.47
2022-09-15T00:21:55.824Z,82.53
2022-09-15T00:24:00.268Z,82.46
2022-09-15T00:26:07.102Z,82.07
2022-09-15T00:28:09.567Z,82.30
2022-09-15T00:30:12.019Z,82.09
2022-09-15T00:32:14.048Z,82.15
2022-09-15T00:34:16.569Z,82.25
2022-09-15T00:36:20.402Z,82.31
2022-09-15T00:38:22.700Z,82.48
2022-09-15T00:40:25.190Z,82.29
2022-09-15T00:42:27.346Z,82.65
2022-09-15T00:44:59.337Z,82.61
2022-09-15T00:47:18.854Z,82.76
2022-09-15T00:49:37.688Z,83.09
2022-09-15T00:52:09.208Z,83.25
2022-09-15T00:54:36.329Z,83.68
2022-09-15T00:56:41.362Z,84.16
2022-09-15T00:58:52.854Z,84.24
2022-09-15T01:00:59.394Z,84.27
2022-09-15T01:03:02.735Z,84.50
2022-09-15T01:05:10.453Z,84.87
2022-09-15T01:07:18.549Z,85.07
2022-09-15T01:09:33.640Z,85.03
2022-09-15T01:11:36.117Z,85.15
2022-09-15T01:13:38.527Z,85.24
2022-09-15T01:21:47.632Z,85.98
2022-09-15T01:24:16.889Z,85.95
2022-09-15T01:26:28.136Z,86.12
2022-09-15T01:28:57.382Z,86.12
2022-09-15T01:31:23.078Z,86.07
2022-09-15T01:34:03.552Z,86.32
2022-09-15T01:36:19.185Z,86.26
2022-09-15T01:39:00.414Z,86.50
2022-09-15T01:41:09.774Z,86.41
2022-09-15T01:43:12.921Z,86.31
2022-09-15T01:45:22.466Z,86.64
2022-09-15T01:47:28.114Z,86.65
2022-09-15T01:49:55.906Z,86.72
2022-09-15T01:51:57.944Z,86.74
2022-09-15T01:54:04.408Z,86.97
2022-09-15T01:56:10.805Z,86.67
2022-09-15T01:58:13.281Z,86.98
2022-09-15T02:00:15.938Z,86.82
2022-09-15T02:02:25.112Z,86.61
2022-09-15T02:04:38.696Z,86.63
2022-09-15T02:06:53.741Z,86.02
2022-09-15T02:09:14.050Z,85.81
2022-09-15T02:11:20.466Z,85.76
2022-09-15T02:13:56.576Z,85.76
2022-09-15T02:16:00.719Z,85.31
2022-09-15T02:18:07.381Z,85.58
2022-09-15T02:20:27.576Z,85.47
2022-09-15T02:22:38.100Z,85.40
2022-09-15T02:24:46.083Z,85.59
2022-09-15T02:26:51.544Z,85.67
2022-09-15T02:28:58.156Z,85.50
2022-09-15T02:31:03.098Z,85.49
2022-09-15T02:33:11.124Z,85.57
2022-09-15T02:35:15.878Z,85.43
2022-09-15T02:37:20.934Z,85.76
2022-09-15T02:39:29.909Z,85.56
2022-09-15T02:41:34.843Z,85.35
2022-09-15T02:43:48.381Z,85.68
2022-09-15T02:45:50.679Z,85.85
2022-09-15T02:47:52.749Z,85.70
2022-09-15T02:49:55.169Z,85.65
2022-09-15T02:51:57.478Z,85.66
2022-09-15T02:53:59.575Z,85.71
2022-09-15T02:56:01.887Z,85.74
2022-09-15T02:58:04.356Z,85.51
2022-09-15T03:00:07.634Z,85.59
2022-09-15T03:02:09.790Z,85.87
2022-09-15T03:04:12.473Z,85.64
2022-09-15T03:06:14.582Z,85.78
2022-09-15T03:08:16.622Z,86.21
2022-09-15T03:10:19.891Z,85.93
2022-09-15T03:12:21.921Z,85.74
2022-09-15T03:14:24.011Z,85.51
2022-09-15T03:16:28.797Z,85.53
2022-09-15T03:18:30.932Z,85.54
2022-09-15T03:20:32.863Z,85.78
2022-09-15T03:22:36.300Z,85.85
2022-09-15T03:24:38.727Z,85.85
2022-09-15T03:26:41.070Z,85.93
2022-09-15T03:28:43.669Z,86.02
2022-09-15T03:30:45.887Z,86.01
2022-09-15T03:32:47.922Z,86.55
2022-09-15T03:34:50.271Z,86.87
2022-09-15T03:36:52.254Z,86.55
2022-09-15T03:38:57.063Z,87.20
2022-09-15T03:41:05.577Z,86.86
2022-09-15T03:43:07.747Z,86.83
2022-09-15T03:45:10.081Z,87.35
2022-09-15T03:47:12.403Z,87.12
2022-09-15T03:49:14.369Z,87.13
2022-09-15T03:51:16.610Z,87.30
2022-09-15T03:53:19.816Z,87.38
2022-09-15T03:55:21.900Z,87.05
2022-09-15T03:57:23.938Z,87.13
2022-09-15T03:59:26.381Z,87.15
2022-09-15T04:01:29.176Z,87.07
2022-09-15T04:03:31.375Z,87.17
2022-09-15T04:05:34.517Z,87.39
2022-09-15T04:07:37.381Z,87.25
2022-09-15T04:09:39.470Z,87.17
2022-09-15T04:11:41.896Z,86.79
2022-09-15T04:13:44.097Z,86.91
2022-09-15T04:15:46.261Z,86.94
2022-09-15T04:17:49.558Z,87.28
2022-09-15T04:19:51.617Z,87.17
2022-09-15T04:21:53.613Z,86.56
2022-09-15T04:23:55.903Z,86.25
2022-09-15T04:26:00.166Z,86.31
2022-09-15T04:28:02.368Z,86.42
2022-09-15T04:30:07.607Z,85.96
2022-09-15T04:32:10.326Z,86.12
2022-09-15T04:34:12.985Z,86.33
2022-09-15T04:36:19.514Z,86.12
2022-09-15T04:38:21.573Z,86.06
2022-09-15T04:40:23.482Z,86.09
2022-09-15T04:42:25.991Z,85.82
2022-09-15T04:44:27.845Z,85.96
2022-09-15T04:46:30.052Z,86.38
2022-09-15T04:48:32.735Z,86.05
2022-09-15T04:50:34.758Z,86.21
2022-09-15T04:52:37.376Z,85.99
2022-09-15T04:54:39.786Z,85.77
2022-09-15T04:56:41.874Z,86.01
2022-09-15T04:58:46.044Z,85.43
2022-09-15T05:00:48.460Z,85.32
2022-09-15T05:02:50.702Z,85.23
2022-09-15T05:04:52.762Z,85.21
2022-09-15T05:06:55.131Z,84.83
2022-09-15T05:08:58.445Z,84.51
2022-09-15T05:11:05.553Z,84.91
2022-09-15T05:13:07.858Z,84.70
2022-09-15T05:15:10.231Z,84.81
2022-09-15T05:17:19.022Z,84.63
2022-09-15T05:19:24.156Z,84.84
2022-09-15T05:21:27.698Z,85.02
2022-09-15T05:23:29.888Z,85.01
2022-09-15T05:25:32.266Z,84.67
2022-09-15T05:27:34.396Z,84.59
2022-09-15T05:29:36.364Z,84.57
2022-09-15T05:31:38.798Z,84.68
2022-09-15T05:33:40.888Z,84.17
2022-09-15T05:35:56.994Z,84.31
2022-09-15T05:37:59.389Z,84.50
2022-09-15T05:40:05.129Z,84.47
2022-09-15T05:42:10.435Z,84.72
2022-09-15T05:44:12.871Z,84.73
2022-09-15T05:46:17.076Z,84.61
2022-09-15T05:48:19.708Z,84.71
2022-09-15T05:50:22.192Z,84.45
2022-09-15T05:52:24.234Z,84.27
2022-09-15T05:54:26.232Z,84.66
2022-09-15T05:56:28.615Z,84.62
2022-09-15T05:58:31.596Z,84.71
2022-09-15T06:00:34.455Z,85.08
2022-09-15T06:02:36.832Z,84.83
2022-09-15T06:04:41.562Z,84.15
2022-09-15T06:06:43.523Z,84.24
2022-09-15T06:08:53.031Z,84.04
2022-09-15T06:11:08.483Z,84.20
2022-09-15T06:13:10.577Z,84.01
2022-09-15T06:15:12.861Z,84.31
2022-09-15T06:17:14.870Z,84.70
2022-09-15T06:19:17.108Z,84.20
2022-09-15T06:21:26.742Z,83.89
2022-09-15T06:23:28.871Z,83.59
2022-09-15T06:25:30.925Z,82.75
2022-09-15T06:27:33.542Z,82.16
2022-09-15T06:29:35.637Z,81.54
2022-09-15T06:31:37.888Z,80.29
2022-09-15T06:33:47.994Z,79.84
2022-09-15T06:35:50.124Z,79.33
2022-09-15T06:37:52.184Z,79.05
2022-09-15T06:39:54.511Z,78.07
2022-09-15T06:42:02.774Z,76.85
2022-09-15T06:44:05.700Z,76.32
2022-09-15T06:46:14.819Z,75.63
2022-09-15T06:48:24.404Z,74.90
2022-09-15T06:50:28.230Z,75.04
2022-09-15T06:52:30.690Z,74.06
2022-09-15T06:54:32.749Z,73.43
2022-09-15T06:56:38.116Z,72.11
2022-09-15T06:58:42.585Z,71.44
2022-09-15T07:00:45.062Z,70.14
2022-09-15T07:02:53.400Z,69.23
2022-09-15T07:04:55.927Z,69.58
2022-09-15T07:06:58.074Z,67.65
2022-09-15T07:09:00.359Z,66.26
2022-09-15T07:11:02.737Z,66.27
2022-09-15T07:13:04.832Z,66.98
2022-09-15T07:15:07.875Z,66.15
2022-09-15T07:17:10.238Z,66.65
2022-09-15T07:19:12.494Z,66.30
2022-09-15T07:21:20.469Z,65.74
2022-09-15T07:23:22.989Z,65.66
2022-09-15T07:25:25.038Z,64.93
2022-09-15T07:27:27.226Z,64.64
2022-09-15T07:29:29.646Z,64.56
2022-09-15T07:31:34.846Z,65.02
2022-09-15T07:33:37.411Z,64.45
2022-09-15T07:35:44.054Z,64.18
2022-09-15T07:37:46.102Z,63.69
2022-09-15T07:39:48.416Z,63.29
2022-09-15T07:41:50.808Z,62.68
2022-09-15T07:43:56.582Z,62.58
2022-09-15T07:46:00.563Z,62.35
2022-09-15T07:48:03.436Z,62.37
2022-09-15T07:50:07.372Z,61.84
2022-09-15T07:52:11.070Z,61.24
2022-09-15T07:54:19.387Z,60.86
2022-09-15T07:56:23.945Z,60.84
2022-09-15T07:58:26.081Z,60.78
2022-09-15T08:00:28.936Z,60.98
2022-09-15T08:02:31.176Z,60.43
2022-09-15T08:04:33.339Z,59.58
2022-09-15T08:06:35.947Z,59.59
2022-09-15T08:08:39.789Z,59.43
2022-09-15T08:10:42.190Z,59.54
2022-09-15T08:12:44.639Z,59.45
2022-09-15T08:14:46.827Z,58.83
2022-09-15T08:16:49.331Z,58.15
2022-09-15T08:18:54.200Z,58.92
2022-09-15T08:20:56.518Z,58.84
2022-09-15T08:22:58.652Z,58.20
2022-09-15T08:25:01.099Z,59.43
2022-09-15T08:27:04.952Z,59.95
2022-09-15T08:29:07.210Z,59.51
2022-09-15T08:31:12.784Z,59.69
2022-09-15T08:33:15.047Z,59.03
2022-09-15T08:35:17.903Z,58.90
2022-09-15T08:37:20.477Z,59.25
2022-09-15T08:39:22.743Z,60.04
2022-09-15T08:41:34.550Z,59.07
2022-09-15T08:43:52.810Z,59.65
2022-09-15T08:46:04.909Z,60.24
2022-09-15T08:48:07.206Z,59.35
2022-09-15T08:50:34.396Z,58.74
2022-09-15T08:53:04.102Z,58.18
2022-09-15T08:55:14.984Z,58.69
2022-09-15T08:57:22.357Z,58.73
2022-09-15T08:59:35.079Z,59.14
2022-09-15T09:02:06.286Z,58.98
2022-09-15T09:05:03.608Z,59.13
2022-09-15T09:07:36.076Z,59.43
2022-09-15T09:09:49.297Z,60.21
2022-09-15T09:12:26.403Z,60.04
2022-09-15T09:15:12.818Z,58.81
2022-09-15T09:17:41.975Z,57.99
2022-09-15T09:20:02.558Z,57.93
2022-09-15T09:22:16.686Z,57.94
2022-09-15T09:24:43.546Z,58.29
2022-09-15T09:26:52.434Z,58.69
2022-09-15T09:29:05.863Z,58.55
2022-09-15T09:31:18.834Z,58.34
2022-09-15T09:33:53.448Z,58.34
2022-09-15T09:35:59.385Z,58.82
2022-09-15T09:38:02.461Z,59.00
2022-09-15T09:40:08.440Z,58.76
2022-09-15T09:42:16.905Z,58.79
2022-09-15T09:44:19.721Z,58.25
2022-09-15T09:46:45.820Z,58.63
2022-09-15T09:49:26.170Z,57.95
2022-09-15T09:51:38.022Z,57.80
2022-09-15T09:53:40.432Z,57.70
2022-09-15T09:55:42.691Z,57.65
2022-09-15T09:57:45.424Z,56.89
2022-09-15T09:59:51.959Z,56.82
2022-09-15T10:02:21.255Z,56.27
2022-09-15T10:04:23.973Z,56.26
2022-09-15T10:06:31.143Z,56.59
2022-09-15T10:08:36.690Z,56.53
2022-09-15T10:10:39.408Z,56.88
2022-09-15T10:12:45.949Z,56.75
2022-09-15T10:14:53.946Z,56.94
2022-09-15T10:17:21.809Z,56.34
2022-09-15T10:19:24.619Z,55.61
2022-09-15T10:21:27.106Z,56.00
2022-09-15T10:23:32.798Z,55.62
2022-09-15T10:25:58.480Z,55.31
2022-09-15T10:28:21.025Z,55.70
2022-09-15T10:30:24.853Z,55.30
2022-09-15T10:32:31.729Z,55.26
2022-09-15T10:34:36.405Z,55.37
2022-09-15T10:36:39.474Z,55.65
2022-09-15T10:38:57.917Z,55.09
2022-09-15T10:41:28.235Z,54.08
2022-09-15T10:43:50.934Z,53.05
2022-09-15T10:46:08.222Z,53.48
2022-09-15T10:48:37.375Z,53.67
2022-09-15T10:51:01.174Z,53.96
2022-09-15T10:53:31.522Z,54.28
2022-09-15T10:55:55.774Z,53.72
2022-09-15T10:58:23.689Z,54.55
2022-09-15T11:04:03.585Z,55.30
2022-09-15T11:07:58.663Z,55.83
2022-09-15T11:10:30.534Z,56.64
2022-09-15T11:12:49.548Z,56.87
2022-09-15T11:15:25.580Z,57.35
2022-09-15T11:25:37.473Z,58.00
2022-09-15T11:27:54.038Z,58.28
2022-09-15T11:30:21.356Z,58.14
2022-09-15T11:32:58.203Z,58.67
2022-09-15T11:35:33.320Z,58.08
2022-09-15T11:37:48.368Z,58.20
2022-09-15T11:40:39.057Z,58.38
2022-09-15T11:43:00.531Z,58.26
2022-09-15T11:45:18.416Z,57.80
2022-09-15T11:47:54.089Z,57.68
2022-09-15T11:50:24.756Z,57.82
2022-09-15T11:52:57.831Z,58.22
2022-09-15T11:55:27.921Z,57.35
2022-09-15T11:57:45.060Z,58.00
2022-09-15T12:00:03.914Z,58.65
2022-09-15T12:03:33.676Z,57.75
2022-09-15T13:21:06.432Z,55.86
2022-09-15T13:23:14.305Z,55.74
2022-09-15T13:25:26.343Z,55.81
2022-09-15T13:31:04.789Z,55.87
2022-09-15T13:59:57.210Z,55.84
2022-09-15T14:11:09.322Z,56.62
2022-09-15T14:19:42.830Z,57.40
2022-09-15T14:22:07.296Z,57.29
2022-09-15T14:24:33.793Z,56.85
2022-09-15T14:26:39.870Z,57.38
2022-09-15T14:29:00.468Z,57.55
2022-09-15T14:31:07.940Z,57.82
2022-09-15T14:33:17.864Z,57.65
2022-09-15T14:35:28.085Z,57.98
2022-09-15T14:37:36.705Z,57.90
2022-09-15T14:39:43.388Z,57.73
2022-09-15T14:41:49.098Z,57.48
2022-09-15T14:43:57.866Z,57.80
2022-09-15T14:46:17.520Z,57.86
2022-09-15T14:48:28.448Z,58.34
2022-09-15T14:56:25.687Z,57.83
2022-09-15T14:59:08.614Z,58.00
2022-09-15T15:01:30.983Z,57.93
2022-09-15T15:04:03.977Z,58.19
2022-09-15T15:06:30.564Z,58.27
2022-09-15T15:08:54.426Z,58.69
2022-09-15T15:10:59.233Z,58.86
2022-09-15T15:13:15.589Z,59.02
2022-09-15T15:15:22.528Z,58.87
2022-09-15T15:17:47.222Z,59.09
2022-09-15T15:20:12.108Z,58.85
2022-09-15T15:22:21.145Z,59.03
2022-09-15T15:24:24.639Z,59.19
2022-09-15T15:26:39.935Z,59.08
2022-09-15T15:28:45.179Z,58.73
2022-09-15T15:30:48.424Z,58.63
2022-09-15T15:42:03.657Z,58.41
2022-09-15T15:47:20.172Z,58.70
2022-09-15T15:50:12.147Z,58.32
2022-09-15T15:52:16.245Z,58.28
2022-09-15T15:54:20.834Z,58.69
2022-09-15T15:56:26.954Z,58.84
2022-09-15T15:58:29.690Z,58.72
2022-09-15T16:00:52.301Z,58.89
2022-09-15T16:02:58.451Z,58.96
2022-09-15T16:06:01.580Z,59.37
2022-09-15T16:16:44.749Z,60.12
2022-09-15T16:21:43.059Z,60.56
2022-09-15T16:23:46.730Z,60.87
2022-09-15T16:26:07.399Z,60.85
2022-09-15T16:28:13.282Z,61.14
2022-09-15T16:30:18.278Z,60.89
2022-09-15T16:32:23.126Z,60.56
2022-09-15T16:34:28.488Z,60.71
2022-09-15T16:36:35.041Z,60.67
2022-09-15T16:38:37.546Z,60.75
2022-09-15T16:40:40.227Z,60.58
2022-09-15T16:42:45.003Z,60.77
2022-09-15T16:44:47.565Z,60.80
2022-09-15T16:46:50.799Z,61.08
2022-09-15T16:48:54.227Z,61.48
2022-09-15T16:51:24.943Z,61.32
2022-09-15T16:53:26.005Z,61.25
2022-09-15T16:55:34.429Z,61.59
2022-09-15T16:57:36.778Z,61.61
2022-09-15T16:59:43.080Z,61.49
2022-09-15T17:09:27.188Z,62.47
2022-09-15T17:11:57.982Z,62.47
2022-09-15T17:16:28.964Z,62.60
2022-09-15T17:18:35.511Z,62.72
2022-09-15T17:20:47.946Z,62.52
2022-09-15T17:23:35.181Z,62.66
2022-09-15T17:28:24.570Z,62.72
2022-09-15T17:30:36.076Z,62.31
2022-09-15T17:32:44.654Z,62.44
2022-09-15T17:34:50.877Z,62.42
2022-09-15T17:36:59.530Z,62.49
2022-09-15T17:39:08.280Z,62.47
2022-09-15T17:41:15.860Z,62.29
2022-09-15T17:43:29.342Z,62.41
2022-09-15T17:45:39.804Z,62.17
2022-09-15T17:47:49.986Z,62.36
2022-09-15T17:49:56.595Z,62.15
2022-09-15T17:52:00.707Z,62.44
2022-09-15T17:54:11.253Z,62.50
2022-09-15T17:56:17.263Z,62.37
2022-09-15T17:58:23.170Z,62.47
2022-09-15T18:00:35.460Z,62.45
2022-09-15T18:02:47.991Z,62.33
2022-09-15T18:04:50.728Z,62.76
2022-09-15T18:06:53.712Z,62.81
2022-09-15T18:08:55.920Z,62.80
2022-09-15T18:10:58.274Z,63.12
2022-09-15T18:13:02.773Z,63.24
2022-09-15T18:15:05.912Z,63.54
2022-09-15T18:17:10.061Z,63.69
2022-09-15T18:19:13.001Z,63.55
2022-09-15T18:21:25.563Z,63.59
2022-09-15T18:23:28.717Z,63.60
2022-09-15T18:25:57.088Z,63.64
2022-09-15T18:28:01.049Z,63.75
2022-09-15T18:30:04.131Z,63.83
2022-09-15T18:32:06.904Z,64.04
2022-09-15T18:34:09.402Z,64.07
2022-09-15T18:36:12.471Z,63.93
2022-09-15T18:38:16.637Z,64.09
2022-09-15T18:40:22.399Z,64.21
2022-09-15T18:42:29.862Z,64.06
2022-09-15T18:44:34.977Z,64.25
2022-09-15T18:46:40.207Z,64.43
2022-09-15T18:48:42.966Z,64.62
2022-09-15T18:50:46.445Z,64.52
2022-09-15T18:53:06.003Z,64.60
2022-09-15T18:55:55.279Z,64.54
2022-09-15T18:58:11.860Z,64.50
2022-09-15T19:00:36.678Z,64.72
2022-09-15T19:02:54.251Z,64.88
2022-09-15T19:05:16.778Z,65.27
2022-09-15T19:07:34.394Z,65.33
2022-09-15T19:14:57.463Z,66.01
2022-09-15T19:17:12.478Z,66.30
2022-09-15T19:19:26.077Z,66.47
2022-09-15T19:21:45.483Z,66.73
2022-09-15T19:23:49.335Z,66.75
2022-09-15T19:26:15.520Z,66.99
2022-09-15T19:28:41.191Z,66.95
2022-09-15T19:30:47.985Z,67.31
2022-09-15T19:32:55.035Z,67.56
2022-09-15T19:37:54.431Z,67.41
2022-09-15T21:08:49.844Z,71.51
2022-09-15T21:10:53.813Z,71.71
2022-09-15T21:13:08.060Z,71.90
2022-09-15T21:15:11.394Z,71.73
2022-09-15T21:17:15.337Z,71.95
2022-09-15T21:19:18.533Z,71.80
2022-09-15T21:21:27.328Z,71.75
2022-09-15T21:23:43.487Z,71.63
2022-09-15T21:25:47.017Z,71.79
2022-09-15T21:27:50.541Z,71.77
2022-09-15T21:29:54.263Z,71.99
2022-09-15T21:31:57.900Z,71.93
2022-09-15T21:34:01.485Z,71.68
2022-09-15T21:36:13.171Z,71.74
2022-09-15T21:38:19.254Z,71.66
2022-09-15T21:40:22.017Z,71.79
2022-09-15T22:10:39.279Z,72.40
2022-09-15T22:12:44.790Z,72.37
2022-09-15T22:14:47.516Z,72.24
2022-09-15T22:16:50.353Z,71.99
2022-09-15T22:19:21.534Z,72.26
2022-09-15T22:21:27.890Z,72.48
2022-09-15T22:23:30.958Z,72.14
2022-09-15T22:25:37.821Z,71.99
2022-09-15T22:27:40.843Z,72.21
2022-09-15T22:29:43.660Z,72.29
2022-09-15T22:31:46.878Z,72.30
2022-09-15T22:33:50.870Z,72.39
2022-09-15T22:35:53.777Z,72.05
2022-09-15T22:37:57.134Z,72.34
2022-09-15T22:40:00.362Z,72.41
2022-09-15T22:42:02.994Z,72.44
2022-09-15T22:44:08.031Z,72.10
2022-09-15T22:46:11.684Z,72.33
2022-09-15T22:48:14.719Z,72.52
2022-09-15T22:50:17.345Z,72.33
2022-09-15T22:52:20.173Z,72.21
2022-09-15T22:54:22.900Z,72.27
2022-09-15T22:56:26.603Z,72.53
2022-09-15T22:58:29.806Z,72.61
2022-09-15T23:00:32.714Z,72.42
2022-09-15T23:02:35.557Z,72.47
2022-09-15T23:04:38.117Z,72.52
2022-09-15T23:06:40.996Z,72.74
2022-09-15T23:08:44.755Z,73.39
2022-09-15T23:10:53.724Z,72.82
2022-09-15T23:13:01.481Z,73.34
2022-09-15T23:15:06.681Z,72.93
2022-09-15T23:17:09.962Z,72.98
2022-09-15T23:19:14.617Z,73.06
2022-09-15T23:21:19.160Z,73.01
2022-09-15T23:23:21.805Z,73.12
2022-09-15T23:25:29.635Z,72.79
2022-09-15T23:27:33.035Z,72.95
2022-09-15T23:29:39.229Z,73.01
2022-09-15T23:31:42.408Z,72.49
2022-09-15T23:33:46.618Z,73.04
2022-09-15T23:35:54.107Z,72.92
2022-09-15T23:37:59.775Z,72.88
2022-09-15T23:40:05.899Z,72.66
2022-09-15T23:42:36.703Z,72.80
2022-09-15T23:44:42.279Z,72.85
2022-09-15T23:46:45.500Z,72.67
2022-09-15T23:48:48.292Z,72.96
2022-09-15T23:50:53.452Z,72.83
2022-09-15T23:52:57.136Z,72.87
2022-09-15T23:54:59.880Z,73.04
2022-09-15T23:57:05.547Z,72.50
2022-09-15T23:59:11.899Z,72.27
